sensor_id;sensor_type;location;lat;lon;timestamp;temperature;humidity
13433;DHT22;6789;47.678;9.158;2024-02-23T00:02:55;7.20;99.90
13433;DHT22;6789;47.678;9.158;2024-02-23T00:07:49;7.20;99.90
13433;DHT22;6789;47.678;9.158;2024-02-23T00:12:41;7.00;99.90
13433;DHT22;6789;47.678;9.158;2024-02-23T00:17:35;6.90;99.90
13433;DHT22;6789;47.678;9.158;2024-02-23T00:22:27;7.00;99.90
13433;DHT22;6789;47.678;9.158;2024-02-23T00:27:19;6.90;99.90
13433;DHT22;6789;47.678;9.158;2024-02-23T00:32:39;7.00;99.90
13433;DHT22;6789;47.678;9.158;2024-02-23T00:37:32;7.00;99.90
13433;DHT22;6789;47.678;9.158;2024-02-23T00:42:27;7.00;99.90
13433;DHT22;6789;47.678;9.158;2024-02-23T00:52:19;7.20;99.90
13433;DHT22;6789;47.678;9.158;2024-02-23T00:57:25;7.10;99.90
13433;DHT22;6789;47.678;9.158;2024-02-23T01:02:21;7.10;99.90
13433;DHT22;6789;47.678;9.158;2024-02-23T01:07:13;7.10;99.90
13433;DHT22;6789;47.678;9.158;2024-02-23T01:12:19;7.20;99.90
13433;DHT22;6789;47.678;9.158;2024-02-23T01:22:18;7.20;99.90
13433;DHT22;6789;47.678;9.158;2024-02-23T01:27:10;7.10;99.90
13433;DHT22;6789;47.678;9.158;2024-02-23T01:32:01;7.20;99.90
13433;DHT22;6789;47.678;9.158;2024-02-23T01:36:53;7.30;99.90
13433;DHT22;6789;47.678;9.158;2024-02-23T01:41:45;7.40;99.90
13433;DHT22;6789;47.678;9.158;2024-02-23T01:46:37;7.40;99.90
13433;DHT22;6789;47.678;9.158;2024-02-23T01:51:29;7.10;99.90
13433;DHT22;6789;47.678;9.158;2024-02-23T01:56:22;6.90;99.90
13433;DHT22;6789;47.678;9.158;2024-02-23T02:01:14;6.60;99.90
13433;DHT22;6789;47.678;9.158;2024-02-23T02:06:06;6.40;99.90
13433;DHT22;6789;47.678;9.158;2024-02-23T02:10:59;6.00;99.90
13433;DHT22;6789;47.678;9.158;2024-02-23T02:15:51;5.90;99.90
13433;DHT22;6789;47.678;9.158;2024-02-23T02:20:52;5.90;99.90
13433;DHT22;6789;47.678;9.158;2024-02-23T02:25:51;5.90;99.90
13433;DHT22;6789;47.678;9.158;2024-02-23T02:30:47;5.90;99.90
13433;DHT22;6789;47.678;9.158;2024-02-23T02:35:39;5.90;99.90
13433;DHT22;6789;47.678;9.158;2024-02-23T02:40:31;6.00;99.90
13433;DHT22;6789;47.678;9.158;2024-02-23T02:45:23;6.00;99.90
13433;DHT22;6789;47.678;9.158;2024-02-23T02:50:15;6.00;99.90
13433;DHT22;6789;47.678;9.158;2024-02-23T02:55:08;6.10;99.90
13433;DHT22;6789;47.678;9.158;2024-02-23T03:00:00;6.10;99.90
13433;DHT22;6789;47.678;9.158;2024-02-23T03:04:51;6.00;99.90
13433;DHT22;6789;47.678;9.158;2024-02-23T03:09:45;6.20;99.90
13433;DHT22;6789;47.678;9.158;2024-02-23T03:14:37;6.10;99.90
13433;DHT22;6789;47.678;9.158;2024-02-23T03:19:31;6.00;99.90
13433;DHT22;6789;47.678;9.158;2024-02-23T03:24:24;6.00;99.90
13433;DHT22;6789;47.678;9.158;2024-02-23T03:29:15;6.00;99.90
13433;DHT22;6789;47.678;9.158;2024-02-23T03:34:07;6.10;99.90
13433;DHT22;6789;47.678;9.158;2024-02-23T03:39:00;6.10;99.90
13433;DHT22;6789;47.678;9.158;2024-02-23T03:43:52;6.10;99.90
13433;DHT22;6789;47.678;9.158;2024-02-23T03:48:44;6.00;99.90
13433;DHT22;6789;47.678;9.158;2024-02-23T03:53:37;6.00;99.90
13433;DHT22;6789;47.678;9.158;2024-02-23T03:58:43;6.00;99.90
13433;DHT22;6789;47.678;9.158;2024-02-23T04:03:35;6.10;99.90
13433;DHT22;6789;47.678;9.158;2024-02-23T04:08:27;6.10;99.90
13433;DHT22;6789;47.678;9.158;2024-02-23T04:13:20;6.20;99.90
13433;DHT22;6789;47.678;9.158;2024-02-23T04:18:11;6.10;99.90
13433;DHT22;6789;47.678;9.158;2024-02-23T04:23:03;6.10;99.90
13433;DHT22;6789;47.678;9.158;2024-02-23T04:27:55;6.20;99.90
13433;DHT22;6789;47.678;9.158;2024-02-23T04:32:47;6.20;99.90
13433;DHT22;6789;47.678;9.158;2024-02-23T04:37:39;6.10;99.90
13433;DHT22;6789;47.678;9.158;2024-02-23T04:42:31;6.10;99.90
13433;DHT22;6789;47.678;9.158;2024-02-23T04:47:23;6.10;99.90
13433;DHT22;6789;47.678;9.158;2024-02-23T04:52:14;6.10;99.90
13433;DHT22;6789;47.678;9.158;2024-02-23T04:57:06;6.00;99.90
13433;DHT22;6789;47.678;9.158;2024-02-23T05:01:58;6.00;99.90
13433;DHT22;6789;47.678;9.158;2024-02-23T05:06:50;6.00;99.90
13433;DHT22;6789;47.678;9.158;2024-02-23T05:11:42;6.00;99.90
13433;DHT22;6789;47.678;9.158;2024-02-23T05:16:34;5.90;99.90
13433;DHT22;6789;47.678;9.158;2024-02-23T05:21:26;5.90;99.90
13433;DHT22;6789;47.678;9.158;2024-02-23T05:26:18;5.80;99.90
13433;DHT22;6789;47.678;9.158;2024-02-23T05:31:10;5.90;99.90
13433;DHT22;6789;47.678;9.158;2024-02-23T05:36:02;5.80;99.90
13433;DHT22;6789;47.678;9.158;2024-02-23T05:40:55;5.70;99.90
13433;DHT22;6789;47.678;9.158;2024-02-23T05:45:46;5.70;99.90
13433;DHT22;6789;47.678;9.158;2024-02-23T05:50:38;5.70;99.90
13433;DHT22;6789;47.678;9.158;2024-02-23T05:55:30;5.80;99.90
13433;DHT22;6789;47.678;9.158;2024-02-23T06:00:22;5.80;99.90
13433;DHT22;6789;47.678;9.158;2024-02-23T06:05:14;5.80;99.90
13433;DHT22;6789;47.678;9.158;2024-02-23T06:10:06;5.90;99.90
13433;DHT22;6789;47.678;9.158;2024-02-23T06:14:58;5.80;99.90
13433;DHT22;6789;47.678;9.158;2024-02-23T06:19:50;5.80;99.90
13433;DHT22;6789;47.678;9.158;2024-02-23T06:24:44;5.90;99.90
13433;DHT22;6789;47.678;9.158;2024-02-23T06:29:36;5.90;99.90
13433;DHT22;6789;47.678;9.158;2024-02-23T06:34:28;6.00;99.90
13433;DHT22;6789;47.678;9.158;2024-02-23T06:39:20;5.90;99.90
13433;DHT22;6789;47.678;9.158;2024-02-23T06:44:12;5.90;99.90
13433;DHT22;6789;47.678;9.158;2024-02-23T06:49:03;6.00;99.90
13433;DHT22;6789;47.678;9.158;2024-02-23T06:53:56;5.90;99.90
13433;DHT22;6789;47.678;9.158;2024-02-23T06:58:48;6.00;99.90
13433;DHT22;6789;47.678;9.158;2024-02-23T07:03:39;6.00;99.90
13433;DHT22;6789;47.678;9.158;2024-02-23T07:08:34;6.00;99.90
13433;DHT22;6789;47.678;9.158;2024-02-23T07:13:26;6.00;99.90
13433;DHT22;6789;47.678;9.158;2024-02-23T07:18:17;5.90;99.90
13433;DHT22;6789;47.678;9.158;2024-02-23T07:23:10;5.90;99.90
13433;DHT22;6789;47.678;9.158;2024-02-23T07:28:01;6.00;99.90
13433;DHT22;6789;47.678;9.158;2024-02-23T07:32:53;6.00;99.90
13433;DHT22;6789;47.678;9.158;2024-02-23T07:37:46;6.10;99.90
13433;DHT22;6789;47.678;9.158;2024-02-23T07:42:38;6.10;99.90
13433;DHT22;6789;47.678;9.158;2024-02-23T07:47:33;6.10;99.90
13433;DHT22;6789;47.678;9.158;2024-02-23T07:52:25;6.20;99.90
13433;DHT22;6789;47.678;9.158;2024-02-23T07:57:21;6.20;99.90
13433;DHT22;6789;47.678;9.158;2024-02-23T08:02:14;6.20;99.90
13433;DHT22;6789;47.678;9.158;2024-02-23T08:07:06;6.20;99.90
13433;DHT22;6789;47.678;9.158;2024-02-23T08:11:58;6.20;99.90
13433;DHT22;6789;47.678;9.158;2024-02-23T08:16:50;6.30;99.90
13433;DHT22;6789;47.678;9.158;2024-02-23T08:21:41;6.40;99.90
13433;DHT22;6789;47.678;9.158;2024-02-23T08:26:35;6.40;99.90
13433;DHT22;6789;47.678;9.158;2024-02-23T08:31:29;6.50;99.90
13433;DHT22;6789;47.678;9.158;2024-02-23T08:36:21;6.60;99.90
13433;DHT22;6789;47.678;9.158;2024-02-23T08:41:13;6.70;99.90
13433;DHT22;6789;47.678;9.158;2024-02-23T08:46:05;6.90;99.90
13433;DHT22;6789;47.678;9.158;2024-02-23T08:51:00;7.00;99.90
13433;DHT22;6789;47.678;9.158;2024-02-23T08:55:52;7.10;99.90
13433;DHT22;6789;47.678;9.158;2024-02-23T09:00:44;7.10;99.90
13433;DHT22;6789;47.678;9.158;2024-02-23T09:05:36;7.10;99.90
13433;DHT22;6789;47.678;9.158;2024-02-23T09:10:28;7.20;99.90
13433;DHT22;6789;47.678;9.158;2024-02-23T09:20:20;7.40;99.90
13433;DHT22;6789;47.678;9.158;2024-02-23T09:25:12;7.50;99.90
13433;DHT22;6789;47.678;9.158;2024-02-23T09:30:04;7.60;99.90
13433;DHT22;6789;47.678;9.158;2024-02-23T09:34:56;7.50;99.90
13433;DHT22;6789;47.678;9.158;2024-02-23T09:39:48;7.50;99.90
13433;DHT22;6789;47.678;9.158;2024-02-23T09:44:41;7.50;99.90
13433;DHT22;6789;47.678;9.158;2024-02-23T09:49:38;7.50;99.90
13433;DHT22;6789;47.678;9.158;2024-02-23T09:54:34;7.50;99.90
13433;DHT22;6789;47.678;9.158;2024-02-23T09:59:28;7.60;99.90
13433;DHT22;6789;47.678;9.158;2024-02-23T10:04:27;7.60;99.90
13433;DHT22;6789;47.678;9.158;2024-02-23T10:09:21;7.70;99.90
13433;DHT22;6789;47.678;9.158;2024-02-23T10:14:27;7.80;99.90
13433;DHT22;6789;47.678;9.158;2024-02-23T10:19:19;7.80;99.90
13433;DHT22;6789;47.678;9.158;2024-02-23T10:24:11;7.90;99.90
13433;DHT22;6789;47.678;9.158;2024-02-23T10:29:03;8.00;99.90
13433;DHT22;6789;47.678;9.158;2024-02-23T10:33:57;8.00;99.90
13433;DHT22;6789;47.678;9.158;2024-02-23T10:38:53;8.10;99.90
13433;DHT22;6789;47.678;9.158;2024-02-23T10:43:52;8.10;99.90
13433;DHT22;6789;47.678;9.158;2024-02-23T10:48:48;8.00;99.90
13433;DHT22;6789;47.678;9.158;2024-02-23T10:53:58;8.00;99.90
13433;DHT22;6789;47.678;9.158;2024-02-23T10:59:09;8.10;99.90
13433;DHT22;6789;47.678;9.158;2024-02-23T11:04:02;8.10;99.90
13433;DHT22;6789;47.678;9.158;2024-02-23T11:09:05;8.20;99.90
13433;DHT22;6789;47.678;9.158;2024-02-23T11:14:03;8.30;99.90
13433;DHT22;6789;47.678;9.158;2024-02-23T11:19:06;8.40;99.90
13433;DHT22;6789;47.678;9.158;2024-02-23T11:24:04;8.50;99.90
13433;DHT22;6789;47.678;9.158;2024-02-23T11:28:57;8.30;99.90
13433;DHT22;6789;47.678;9.158;2024-02-23T11:33:54;8.50;99.90
13433;DHT22;6789;47.678;9.158;2024-02-23T11:38:47;8.50;99.90
13433;DHT22;6789;47.678;9.158;2024-02-23T11:43:39;8.40;99.90
13433;DHT22;6789;47.678;9.158;2024-02-23T11:48:32;8.50;99.90
13433;DHT22;6789;47.678;9.158;2024-02-23T11:53:24;8.70;99.90
13433;DHT22;6789;47.678;9.158;2024-02-23T11:58:18;8.90;99.90
13433;DHT22;6789;47.678;9.158;2024-02-23T12:03:10;9.10;99.90
13433;DHT22;6789;47.678;9.158;2024-02-23T12:08:02;9.20;99.90
13433;DHT22;6789;47.678;9.158;2024-02-23T12:12:55;9.20;99.90
13433;DHT22;6789;47.678;9.158;2024-02-23T12:17:49;9.30;99.90
13433;DHT22;6789;47.678;9.158;2024-02-23T12:22:42;8.90;99.90
13433;DHT22;6789;47.678;9.158;2024-02-23T12:27:34;9.00;99.90
13433;DHT22;6789;47.678;9.158;2024-02-23T12:32:26;9.40;99.90
13433;DHT22;6789;47.678;9.158;2024-02-23T12:37:18;9.50;99.90
13433;DHT22;6789;47.678;9.158;2024-02-23T12:42:10;9.60;99.90
13433;DHT22;6789;47.678;9.158;2024-02-23T12:47:02;9.60;99.90
13433;DHT22;6789;47.678;9.158;2024-02-23T12:51:54;9.70;99.90
13433;DHT22;6789;47.678;9.158;2024-02-23T12:56:47;9.20;99.90
13433;DHT22;6789;47.678;9.158;2024-02-23T13:01:38;9.00;99.90
13433;DHT22;6789;47.678;9.158;2024-02-23T13:06:37;9.00;99.90
13433;DHT22;6789;47.678;9.158;2024-02-23T13:11:31;9.30;99.90
13433;DHT22;6789;47.678;9.158;2024-02-23T13:16:23;9.50;99.90
13433;DHT22;6789;47.678;9.158;2024-02-23T13:21:14;9.40;99.90
13433;DHT22;6789;47.678;9.158;2024-02-23T13:26:06;9.10;99.90
13433;DHT22;6789;47.678;9.158;2024-02-23T13:31:01;9.00;99.90
13433;DHT22;6789;47.678;9.158;2024-02-23T13:35:54;9.20;99.90
13433;DHT22;6789;47.678;9.158;2024-02-23T13:40:47;9.10;99.90
13433;DHT22;6789;47.678;9.158;2024-02-23T13:45:51;9.00;99.90
13433;DHT22;6789;47.678;9.158;2024-02-23T13:50:47;8.80;99.90
13433;DHT22;6789;47.678;9.158;2024-02-23T13:55:40;9.00;99.90
13433;DHT22;6789;47.678;9.158;2024-02-23T14:00:34;9.00;99.90
13433;DHT22;6789;47.678;9.158;2024-02-23T14:05:26;9.00;99.90
13433;DHT22;6789;47.678;9.158;2024-02-23T14:10:18;8.90;99.90
13433;DHT22;6789;47.678;9.158;2024-02-23T14:15:09;8.70;99.90
13433;DHT22;6789;47.678;9.158;2024-02-23T14:20:02;8.70;99.90
13433;DHT22;6789;47.678;9.158;2024-02-23T14:24:55;9.00;99.90
13433;DHT22;6789;47.678;9.158;2024-02-23T14:29:47;8.80;99.90
13433;DHT22;6789;47.678;9.158;2024-02-23T14:34:39;8.60;99.90
13433;DHT22;6789;47.678;9.158;2024-02-23T14:39:31;8.70;99.90
13433;DHT22;6789;47.678;9.158;2024-02-23T14:44:22;8.50;99.90
13433;DHT22;6789;47.678;9.158;2024-02-23T14:49:14;8.50;99.90
13433;DHT22;6789;47.678;9.158;2024-02-23T14:54:06;8.60;99.90
13433;DHT22;6789;47.678;9.158;2024-02-23T14:58:58;8.50;99.90
13433;DHT22;6789;47.678;9.158;2024-02-23T15:03:50;8.50;99.90
13433;DHT22;6789;47.678;9.158;2024-02-23T15:08:41;8.50;99.90
13433;DHT22;6789;47.678;9.158;2024-02-23T15:13:33;8.40;99.90
13433;DHT22;6789;47.678;9.158;2024-02-23T15:18:25;8.50;99.90
13433;DHT22;6789;47.678;9.158;2024-02-23T15:23:17;8.70;99.90
13433;DHT22;6789;47.678;9.158;2024-02-23T15:28:09;8.70;99.90
13433;DHT22;6789;47.678;9.158;2024-02-23T15:33:01;8.60;99.90
13433;DHT22;6789;47.678;9.158;2024-02-23T15:37:53;8.40;99.90
13433;DHT22;6789;47.678;9.158;2024-02-23T15:42:59;8.20;99.90
13433;DHT22;6789;47.678;9.158;2024-02-23T15:48:09;8.20;99.90
13433;DHT22;6789;47.678;9.158;2024-02-23T15:53:19;8.10;99.90
13433;DHT22;6789;47.678;9.158;2024-02-23T15:58:29;8.00;99.90
13433;DHT22;6789;47.678;9.158;2024-02-23T16:03:21;8.10;99.90
13433;DHT22;6789;47.678;9.158;2024-02-23T16:08:14;8.10;99.90
13433;DHT22;6789;47.678;9.158;2024-02-23T16:13:08;8.20;99.90
13433;DHT22;6789;47.678;9.158;2024-02-23T16:18:00;8.20;99.90
13433;DHT22;6789;47.678;9.158;2024-02-23T16:22:52;8.10;99.90
13433;DHT22;6789;47.678;9.158;2024-02-23T16:27:44;8.10;99.90
13433;DHT22;6789;47.678;9.158;2024-02-23T16:32:39;8.10;99.90
13433;DHT22;6789;47.678;9.158;2024-02-23T16:37:31;8.10;99.90
13433;DHT22;6789;47.678;9.158;2024-02-23T16:42:24;7.90;99.90
13433;DHT22;6789;47.678;9.158;2024-02-23T16:47:16;7.70;99.90
13433;DHT22;6789;47.678;9.158;2024-02-23T16:52:07;7.60;99.90
13433;DHT22;6789;47.678;9.158;2024-02-23T16:56:59;7.50;99.90
13433;DHT22;6789;47.678;9.158;2024-02-23T17:01:51;7.40;99.90
13433;DHT22;6789;47.678;9.158;2024-02-23T17:06:44;7.30;99.90
13433;DHT22;6789;47.678;9.158;2024-02-23T17:11:37;7.30;99.90
13433;DHT22;6789;47.678;9.158;2024-02-23T17:16:29;7.20;99.90
13433;DHT22;6789;47.678;9.158;2024-02-23T17:21:23;7.20;99.90
13433;DHT22;6789;47.678;9.158;2024-02-23T17:26:15;7.20;99.90
13433;DHT22;6789;47.678;9.158;2024-02-23T17:31:07;7.10;99.90
13433;DHT22;6789;47.678;9.158;2024-02-23T17:35:59;7.00;99.90
13433;DHT22;6789;47.678;9.158;2024-02-23T17:40:51;7.00;99.90
13433;DHT22;6789;47.678;9.158;2024-02-23T17:45:44;6.90;99.90
13433;DHT22;6789;47.678;9.158;2024-02-23T17:50:36;6.80;99.90
13433;DHT22;6789;47.678;9.158;2024-02-23T17:55:28;6.80;99.90
13433;DHT22;6789;47.678;9.158;2024-02-23T18:00:20;6.80;99.90
13433;DHT22;6789;47.678;9.158;2024-02-23T18:05:12;6.80;99.90
13433;DHT22;6789;47.678;9.158;2024-02-23T18:10:04;6.70;99.90
13433;DHT22;6789;47.678;9.158;2024-02-23T18:14:56;6.50;99.90
13433;DHT22;6789;47.678;9.158;2024-02-23T18:19:48;6.30;99.90
13433;DHT22;6789;47.678;9.158;2024-02-23T18:24:40;6.30;99.90
13433;DHT22;6789;47.678;9.158;2024-02-23T18:29:33;6.20;99.90
13433;DHT22;6789;47.678;9.158;2024-02-23T18:34:27;6.20;99.90
13433;DHT22;6789;47.678;9.158;2024-02-23T18:39:19;6.20;99.90
13433;DHT22;6789;47.678;9.158;2024-02-23T18:44:11;6.20;99.90
13433;DHT22;6789;47.678;9.158;2024-02-23T18:49:06;6.20;99.90
13433;DHT22;6789;47.678;9.158;2024-02-23T18:53:59;6.30;99.90
13433;DHT22;6789;47.678;9.158;2024-02-23T18:58:51;6.40;99.90
13433;DHT22;6789;47.678;9.158;2024-02-23T19:03:43;6.40;99.90
13433;DHT22;6789;47.678;9.158;2024-02-23T19:08:34;6.30;99.90
13433;DHT22;6789;47.678;9.158;2024-02-23T19:13:26;6.30;99.90
13433;DHT22;6789;47.678;9.158;2024-02-23T19:18:18;6.30;99.90
13433;DHT22;6789;47.678;9.158;2024-02-23T19:23:11;6.10;99.90
13433;DHT22;6789;47.678;9.158;2024-02-23T19:28:03;6.00;99.90
13433;DHT22;6789;47.678;9.158;2024-02-23T19:32:55;6.10;99.90
13433;DHT22;6789;47.678;9.158;2024-02-23T19:37:47;6.00;99.90
13433;DHT22;6789;47.678;9.158;2024-02-23T19:42:39;6.00;99.90
13433;DHT22;6789;47.678;9.158;2024-02-23T19:47:31;5.90;99.90
13433;DHT22;6789;47.678;9.158;2024-02-23T19:52:23;5.80;99.90
13433;DHT22;6789;47.678;9.158;2024-02-23T19:57:15;5.80;99.90
13433;DHT22;6789;47.678;9.158;2024-02-23T20:02:08;5.80;99.90
13433;DHT22;6789;47.678;9.158;2024-02-23T20:07:04;5.60;99.90
13433;DHT22;6789;47.678;9.158;2024-02-23T20:12:00;5.60;99.90
13433;DHT22;6789;47.678;9.158;2024-02-23T20:16:53;5.50;99.90
13433;DHT22;6789;47.678;9.158;2024-02-23T20:21:44;5.40;99.90
13433;DHT22;6789;47.678;9.158;2024-02-23T20:26:36;5.30;99.90
13433;DHT22;6789;47.678;9.158;2024-02-23T20:31:28;5.30;99.90
13433;DHT22;6789;47.678;9.158;2024-02-23T20:36:20;5.20;99.90
13433;DHT22;6789;47.678;9.158;2024-02-23T20:41:12;5.20;99.90
13433;DHT22;6789;47.678;9.158;2024-02-23T20:46:03;5.10;99.90
13433;DHT22;6789;47.678;9.158;2024-02-23T20:50:55;5.00;99.90
13433;DHT22;6789;47.678;9.158;2024-02-23T20:55:47;5.00;99.90
13433;DHT22;6789;47.678;9.158;2024-02-23T21:00:41;4.90;99.90
13433;DHT22;6789;47.678;9.158;2024-02-23T21:05:33;4.90;99.90
13433;DHT22;6789;47.678;9.158;2024-02-23T21:10:27;4.80;99.90
13433;DHT22;6789;47.678;9.158;2024-02-23T21:15:19;4.70;99.90
13433;DHT22;6789;47.678;9.158;2024-02-23T21:20:11;4.70;99.90
13433;DHT22;6789;47.678;9.158;2024-02-23T21:25:04;4.60;99.90
13433;DHT22;6789;47.678;9.158;2024-02-23T21:29:56;4.60;99.90
13433;DHT22;6789;47.678;9.158;2024-02-23T21:34:48;4.60;99.90
13433;DHT22;6789;47.678;9.158;2024-02-23T21:39:40;4.50;99.90
13433;DHT22;6789;47.678;9.158;2024-02-23T21:44:32;4.50;99.90
13433;DHT22;6789;47.678;9.158;2024-02-23T21:49:24;4.40;99.90
13433;DHT22;6789;47.678;9.158;2024-02-23T21:54:16;4.30;99.90
13433;DHT22;6789;47.678;9.158;2024-02-23T21:59:08;4.30;99.90
13433;DHT22;6789;47.678;9.158;2024-02-23T22:04:00;4.20;99.90
13433;DHT22;6789;47.678;9.158;2024-02-23T22:09:00;4.30;99.90
13433;DHT22;6789;47.678;9.158;2024-02-23T22:13:52;4.20;99.90
13433;DHT22;6789;47.678;9.158;2024-02-23T22:18:43;4.20;99.90
13433;DHT22;6789;47.678;9.158;2024-02-23T22:23:36;4.30;99.90
13433;DHT22;6789;47.678;9.158;2024-02-23T22:28:28;4.10;99.90
13433;DHT22;6789;47.678;9.158;2024-02-23T22:33:34;4.10;99.90
13433;DHT22;6789;47.678;9.158;2024-02-23T22:38:41;4.10;99.90
13433;DHT22;6789;47.678;9.158;2024-02-23T22:43:49;4.10;99.90
13433;DHT22;6789;47.678;9.158;2024-02-23T22:48:55;4.10;99.90
13433;DHT22;6789;47.678;9.158;2024-02-23T22:54:01;4.20;99.90
13433;DHT22;6789;47.678;9.158;2024-02-23T22:59:06;4.30;99.90
13433;DHT22;6789;47.678;9.158;2024-02-23T23:04:15;4.40;99.90
13433;DHT22;6789;47.678;9.158;2024-02-23T23:09:08;4.40;99.90
13433;DHT22;6789;47.678;9.158;2024-02-23T23:14:01;4.20;99.90
13433;DHT22;6789;47.678;9.158;2024-02-23T23:18:54;4.20;99.90
13433;DHT22;6789;47.678;9.158;2024-02-23T23:23:46;4.20;99.90
13433;DHT22;6789;47.678;9.158;2024-02-23T23:28:38;4.10;99.90
13433;DHT22;6789;47.678;9.158;2024-02-23T23:33:30;4.10;99.90
13433;DHT22;6789;47.678;9.158;2024-02-23T23:38:22;4.20;99.90
13433;DHT22;6789;47.678;9.158;2024-02-23T23:43:13;4.20;99.90
13433;DHT22;6789;47.678;9.158;2024-02-23T23:48:05;4.20;99.90
13433;DHT22;6789;47.678;9.158;2024-02-23T23:52:59;4.10;99.90
13433;DHT22;6789;47.678;9.158;2024-02-23T23:57:51;4.10;99.90
